Tatabanya, Hungary
Current Conditions -  °F | °C
As of 4:45 AM on Tuesday 23 Dec 2014 (Local Time) from LHPR Reporting Station
Clear Clear  
Wind Chill: 37°   Ceiling: Unl
Heat Index: 43°   Visibility: 6mi
Dew Point: 36°   Wind: 9mph
Humidity: 76%   Direction: 260°W
Pressure: 30.12"   Gusts: NA
Location:  47.55°N, 18.44°E
Report Text: LHPR 230245Z 26008KT CAVOK 06/02 Q1020
Loading
Personal Weather Stations






























Interactive Weather Map New forecast layout! Learn more

10-Day Weather Forecast

Advertisements
Track Severe Weather on mobile